CYHU

Montreal Saint-Hubert Longueuil Airport

Airport
ICAO code
CYHU
IATA Code
YHU
Summary
ICAO Region
NAM
ICAO Territory
Location

Saint Hubert, Quebec

Serving
Montreal
Elevation
90 ft
Coordinates
45° 31' 5" N , 73° 25' 1" W
KCC
Metar
Observation
CYHU 062300Z AUTO 35005KT 1 3/4SM -RA BR OVC004 03/03 A3025 RMK PCPN 3.0MM PAST HR SLP246
Station
Saint Hubert Airport
Date/Time
2022-12-06 23:00:00
Wind direction
350°
Wind speed
05 kts
Lowest cloud amount
overcast
Temperature
3°C
Dew point
3°C
Humidity
100%
Weather condition
light

Montréal Saint-Hubert Longueuil Airport, also called Montréal/Saint-Hubert Airport, is located in the Saint-Hubert borough of Longueuil, Quebec.

Climatology

Humid continental climate (Köppen climate classification Dfb)

Runways

Designator Length Width Surface Rops
10/28 853 46 ASP Yes/Yes
06R/24L 1195 30 ASP Yes/Yes
06L/24R 2390 46 ASP Yes/Yes

Airport map

Aerial View

SKYbrary Partners:

Safety knowledge contributed by: